Time;durP1;ratioP1;P1;durP2;ratioP2;P2;SDS_P1;SDS_P2;PMS_P1;PMS_P2;Temp;Humidity;BMP_temperature;BMP_pressure;BME280_temperature;BME280_humidity;BME280_pressure;Samples;Min_cycle;Max_cycle;Signal;HPM_P1;HPM_P2
2020/12/08 00:02:08;;;;;;;6.97;5.97;;;;;;;-144.99;97.86;52537.78;5048023;28;20655;-68
2020/12/08 00:04:35;;;;;;;7.93;7.13;;;;;;;-144.99;97.76;52529.63;5050482;28;20941;-66
2020/12/08 00:07:03;;;;;;;8.47;7.00;;;;;;;-144.99;97.96;52505.16;5049856;28;21232;-67
2020/12/08 00:09:29;;;;;;;9.40;7.10;;;;;;;-144.99;97.97;52531.66;5049765;28;20711;-67
2020/12/08 00:11:55;;;;;;;7.73;6.93;;;;;;;-144.99;97.92;52476.63;5049372;28;20731;-67
2020/12/08 00:14:21;;;;;;;8.83;6.57;;;;;;;-144.99;97.99;52521.47;5048943;28;20723;-67
2020/12/08 00:16:47;;;;;;;7.97;5.43;;;;;;;-144.99;97.80;52505.16;5049024;28;21159;-67
2020/12/08 00:19:14;;;;;;;7.87;6.87;;;;;;;-144.99;97.76;52521.47;5049390;28;21042;-67
2020/12/08 00:21:42;;;;;;;7.63;6.17;;;;;;;-144.99;97.78;52529.63;5048146;28;20663;-66
2020/12/08 00:24:09;;;;;;;7.87;5.90;;;;;;;-144.99;97.76;52537.78;5047430;28;20652;-67
2020/12/08 00:26:36;;;;;;;7.57;5.67;;;;;;;-144.99;97.72;52488.84;5048764;28;20648;-66
2020/12/08 00:29:03;;;;;;;8.03;6.90;;;;;;;-144.99;97.53;52501.09;5048753;28;21309;-67
2020/12/08 00:31:29;;;;;;;7.50;6.40;;;;;;;-144.99;97.74;52517.41;5049094;28;20632;-67
2020/12/08 00:33:56;;;;;;;7.37;6.33;;;;;;;-144.99;97.74;52523.50;5048449;28;21247;-67
2020/12/08 00:36:23;;;;;;;6.87;5.57;;;;;;;-144.99;97.59;52501.09;5049154;28;21062;-69
2020/12/08 00:38:50;;;;;;;7.53;6.77;;;;;;;-144.99;97.30;52529.63;5049142;28;20659;-68
2020/12/08 00:41:17;;;;;;;7.30;5.43;;;;;;;-144.99;96.85;52505.16;5048556;28;20655;-66
2020/12/08 00:43:43;;;;;;;8.20;6.47;;;;;;;-144.99;96.78;52501.09;5048621;28;20659;-68
2020/12/08 00:46:10;;;;;;;8.57;7.63;;;;;;;-144.99;96.51;52521.47;5048848;28;20986;-68
2020/12/08 00:48:36;;;;;;;8.40;7.57;;;;;;;-144.99;96.45;52521.47;5050216;28;20659;-68
2020/12/08 00:51:02;;;;;;;8.50;7.53;;;;;;;-144.99;96.39;52550.00;5049779;28;21173;-66
2020/12/08 00:53:30;;;;;;;8.57;7.53;;;;;;;-144.99;96.38;52513.31;5048377;28;20642;-67
2020/12/08 00:55:56;;;;;;;18.50;10.97;;;;;;;-144.99;96.60;52533.69;5048647;28;20709;-66
2020/12/08 00:58:22;;;;;;;18.03;11.73;;;;;;;-144.99;96.54;52513.31;5048038;28;20687;-67
2020/12/08 01:00:48;;;;;;;18.20;12.30;;;;;;;-144.99;96.30;52529.63;5048172;28;21013;-68
2020/12/08 01:03:14;;;;;;;19.40;12.33;;;;;;;-144.99;96.28;52552.03;5048214;28;21663;-67
2020/12/08 01:05:40;;;;;;;15.17;9.57;;;;;;;-144.99;96.24;52529.63;5049111;28;20627;-67
2020/12/08 01:08:07;;;;;;;15.10;7.30;;;;;;;-144.99;96.40;52517.41;5048651;28;21348;-67
2020/12/08 01:10:34;;;;;;;17.50;11.07;;;;;;;-144.99;96.68;52517.41;5048004;28;20655;-67
2020/12/08 01:13:00;;;;;;;22.90;14.23;;;;;;;-144.99;96.91;52525.56;5048212;28;20659;-67
2020/12/08 01:15:26;;;;;;;15.37;9.90;;;;;;;-144.99;96.85;52497.00;5047597;28;20769;-67
2020/12/08 01:17:52;;;;;;;16.00;11.93;;;;;;;-144.99;97.04;52531.66;5048145;28;20744;-66
2020/12/08 01:20:18;;;;;;;17.63;11.03;;;;;;;-144.99;97.18;52533.69;5048762;28;20731;-67
2020/12/08 01:22:44;;;;;;;19.07;13.70;;;;;;;-144.99;97.43;52497.00;5048711;28;20638;-67
2020/12/08 01:25:10;;;;;;;19.03;13.87;;;;;;;-144.99;97.63;52525.56;5048579;28;20662;-67
2020/12/08 01:27:38;;;;;;;22.73;12.40;;;;;;;-144.99;97.72;52519.44;5048634;28;20668;-67
2020/12/08 01:30:04;;;;;;;17.57;11.13;;;;;;;-144.99;97.92;52533.69;5047954;28;21073;-66
2020/12/08 01:32:31;;;;;;;14.53;11.37;;;;;;;-144.99;97.90;52515.34;5048300;28;20628;-67
2020/12/08 01:34:57;;;;;;;20.30;13.40;;;;;;;-144.99;98.19;52505.16;5048464;28;20635;-67
2020/12/08 01:37:23;;;;;;;15.00;8.23;;;;;;;-144.99;97.97;52521.47;5048479;28;20647;-66
2020/12/08 01:39:49;;;;;;;17.53;10.47;;;;;;;-144.99;98.07;52545.94;5048544;28;20707;-66
2020/12/08 01:42:15;;;;;;;11.23;7.17;;;;;;;-144.99;97.64;52478.66;5048296;28;20622;-66
2020/12/08 01:44:47;;;;;;;10.37;8.10;;;;;;;-144.99;97.51;52541.84;5048060;28;20620;-66
2020/12/08 01:47:14;;;;;;;8.00;7.20;;;;;;;-144.99;97.10;52537.78;5048240;28;21062;-66
2020/12/08 01:49:42;;;;;;;10.03;7.83;;;;;;;-144.99;97.14;52509.25;5048522;28;20787;-66
2020/12/08 01:52:09;;;;;;;10.17;6.50;;;;;;;-144.99;97.18;52547.97;5048143;28;20728;-66
2020/12/08 01:54:35;;;;;;;6.23;4.70;;;;;;;-144.99;96.96;52513.31;5047976;28;21041;-67
2020/12/08 01:57:01;;;;;;;7.63;4.83;;;;;;;-144.99;96.91;52545.94;5047649;28;20731;-66
2020/12/08 01:59:27;;;;;;;8.07;6.10;;;;;;;-144.99;96.90;52545.94;5047377;28;21050;-67
2020/12/08 02:01:54;;;;;;;10.20;5.87;;;;;;;-144.99;96.83;52554.09;5047949;28;20719;-67
2020/12/08 02:04:20;;;;;;;7.50;6.43;;;;;;;-144.99;96.95;52480.72;5048632;28;20715;-68
2020/12/08 02:06:46;;;;;;;7.40;5.97;;;;;;;-144.99;96.94;52521.47;5049011;28;20655;-68
2020/12/08 02:09:12;;;;;;;6.83;5.20;;;;;;;-144.99;96.76;52490.91;5051900;28;21086;-66
2020/12/08 02:11:38;;;;;;;7.53;5.30;;;;;;;-144.99;96.73;52517.41;5051976;28;21104;-67
2020/12/08 02:14:04;;;;;;;7.40;6.37;;;;;;;-144.99;96.70;52509.25;5051684;28;20615;-66
2020/12/08 02:16:30;;;;;;;10.67;7.40;;;;;;;-144.99;97.01;52503.13;5052196;28;20666;-67
2020/12/08 02:18:57;;;;;;;18.23;11.07;;;;;;;-144.99;97.28;52519.44;5052028;28;20754;-67
2020/12/08 02:21:30;;;;;;;15.50;9.20;;;;;;;-144.99;97.34;52525.56;5051129;28;20655;-67
2020/12/08 02:23:57;;;;;;;19.50;13.37;;;;;;;-144.99;97.35;52527.59;5051294;28;20622;-68
2020/12/08 02:26:23;;;;;;;21.07;12.17;;;;;;;-144.99;97.40;52545.94;5051392;28;20678;-67
2020/12/08 02:28:49;;;;;;;23.50;11.43;;;;;;;-144.99;97.39;52513.31;5052501;28;20746;-68
2020/12/08 02:31:15;;;;;;;18.30;11.50;;;;;;;-144.99;97.32;52497.00;5051992;28;20715;-66
2020/12/08 02:33:41;;;;;;;16.17;10.27;;;;;;;-144.99;97.06;52505.16;5051123;28;20623;-67
2020/12/08 02:36:08;;;;;;;19.30;10.83;;;;;;;-144.99;97.02;52509.25;5051048;28;20628;-67
2020/12/08 02:38:35;;;;;;;18.43;10.27;;;;;;;-144.99;96.98;52505.16;5051550;28;20646;-67
2020/12/08 02:41:01;;;;;;;13.53;8.27;;;;;;;-144.99;96.75;52513.31;5050860;28;21342;-67
2020/12/08 02:43:28;;;;;;;13.13;7.40;;;;;;;-144.99;96.80;52529.63;5050993;28;20740;-67
2020/12/08 02:45:54;;;;;;;8.37;5.97;;;;;;;-144.99;96.44;52507.19;5047741;28;21061;-66
2020/12/08 02:48:21;;;;;;;7.77;6.30;;;;;;;-144.99;96.60;52513.31;5051497;28;20679;-67
2020/12/08 02:50:47;;;;;;;7.70;5.93;;;;;;;-144.99;96.20;52497.00;5051543;28;20751;-67
2020/12/08 02:53:13;;;;;;;15.73;9.70;;;;;;;-144.99;96.47;52494.97;5050687;28;20650;-67
2020/12/08 02:55:40;;;;;;;11.13;7.73;;;;;;;-144.99;96.38;52566.31;5048615;28;21204;-67
2020/12/08 02:58:06;;;;;;;14.90;7.40;;;;;;;-144.99;96.19;52492.94;5080414;22;20742;-73
2020/12/08 03:00:32;;;;;;;11.97;7.47;;;;;;;-144.99;96.24;52505.16;5063028;28;21225;-75
2020/12/08 03:02:59;;;;;;;13.03;10.30;;;;;;;-144.99;96.29;52537.78;5071364;28;20623;-75
2020/12/08 03:05:25;;;;;;;13.60;6.83;;;;;;;-144.99;96.07;52517.41;5073294;28;20619;-75
2020/12/08 03:07:51;;;;;;;7.97;5.80;;;;;;;-144.99;96.28;52525.56;5071298;28;20754;-76
2020/12/08 03:10:17;;;;;;;8.13;5.40;;;;;;;-144.99;96.02;52554.09;5063473;28;20734;-76
2020/12/08 03:12:45;;;;;;;7.27;5.80;;;;;;;-144.99;95.83;52488.84;5070756;28;21195;-74
2020/12/08 03:15:11;;;;;;;8.77;7.87;;;;;;;-144.99;95.86;52513.31;5070299;28;20713;-74
2020/12/08 03:17:37;;;;;;;12.10;6.80;;;;;;;-144.99;95.83;52517.41;5071033;28;20615;-74
2020/12/08 03:20:03;;;;;;;9.87;6.17;;;;;;;-144.99;95.90;52513.31;5070396;28;20651;-74
2020/12/08 03:22:29;;;;;;;11.10;6.30;;;;;;;-144.99;95.96;52517.41;5070775;28;20646;-74
2020/12/08 03:24:56;;;;;;;11.20;6.63;;;;;;;-144.99;96.10;52505.16;5070724;28;20725;-75
2020/12/08 03:27:22;;;;;;;11.07;6.73;;;;;;;-144.99;96.20;52527.59;5070828;28;20694;-76
2020/12/08 03:29:49;;;;;;;9.17;6.43;;;;;;;-144.99;96.23;52537.78;5070522;28;20635;-77
2020/12/08 03:32:15;;;;;;;7.90;6.00;;;;;;;-144.99;96.23;52545.94;5070834;28;20711;-77
2020/12/08 03:34:41;;;;;;;8.80;5.17;;;;;;;-144.99;96.29;52537.78;5070873;28;20627;-76
2020/12/08 03:37:07;;;;;;;7.37;5.47;;;;;;;-144.99;96.29;52501.09;5071208;28;20637;-76
2020/12/08 03:39:34;;;;;;;9.43;6.30;;;;;;;-144.99;96.44;52507.19;5071041;28;20674;-76
2020/12/08 03:42:02;;;;;;;7.63;5.57;;;;;;;-144.99;96.38;52554.09;5071204;28;20686;-75
2020/12/08 03:44:28;;;;;;;6.33;5.03;;;;;;;-144.99;96.28;52492.94;5070717;28;20823;-75
2020/12/08 03:46:56;;;;;;;12.60;8.10;;;;;;;-144.99;96.46;52492.94;5071373;28;20651;-76
2020/12/08 03:49:26;;;;;;;9.87;6.93;;;;;;;-144.99;96.34;52488.84;5071951;28;20643;-76
2020/12/08 03:51:52;;;;;;;14.20;8.03;;;;;;;-144.99;96.38;52505.16;5070698;28;20630;-76
2020/12/08 03:54:18;;;;;;;12.63;7.43;;;;;;;-144.99;96.42;52490.91;5070839;28;20790;-76
2020/12/08 03:56:45;;;;;;;9.63;7.27;;;;;;;-144.99;96.19;52505.16;5070364;28;20717;-76
2020/12/08 03:59:16;;;;;;;7.13;5.97;;;;;;;-144.99;95.95;52521.47;5070047;28;20753;-77
2020/12/08 04:01:43;;;;;;;6.43;4.77;;;;;;;-144.99;96.09;52550.00;5070217;28;20611;-77
2020/12/08 04:04:10;;;;;;;8.47;5.60;;;;;;;-144.99;96.00;52525.56;5070850;28;20658;-78
2020/12/08 04:06:36;;;;;;;9.93;5.73;;;;;;;-144.99;95.99;52525.56;5070047;28;20657;-77
2020/12/08 04:09:03;;;;;;;9.77;5.37;;;;;;;-144.99;96.21;52523.50;5070206;28;20757;-78
2020/12/08 04:11:29;;;;;;;8.43;6.87;;;;;;;-144.99;96.12;52529.63;5070174;28;20703;-76
2020/12/08 04:13:55;;;;;;;22.40;9.67;;;;;;;-144.99;96.29;52505.16;5070072;28;20703;-76
2020/12/08 04:16:21;;;;;;;10.97;7.97;;;;;;;-144.99;96.28;52533.69;5070302;28;21047;-76
2020/12/08 04:18:47;;;;;;;8.20;6.37;;;;;;;-144.99;96.10;52541.84;5070477;28;21238;-74
2020/12/08 04:21:21;;;;;;;8.50;6.47;;;;;;;-144.99;96.02;52497.00;5070357;28;20825;-74
2020/12/08 04:23:47;;;;;;;8.20;5.40;;;;;;;-144.99;95.86;52497.00;5070493;28;20635;-76
2020/12/08 04:26:13;;;;;;;6.73;5.63;;;;;;;-144.99;95.81;52509.25;5069157;28;20706;-77
2020/12/08 04:28:39;;;;;;;8.03;6.40;;;;;;;-144.99;95.63;52537.78;5070071;28;20654;-77
2020/12/08 04:31:11;;;;;;;8.70;6.63;;;;;;;-144.99;95.82;52558.16;5069258;28;20730;-76
2020/12/08 04:33:37;;;;;;;6.87;6.07;;;;;;;-144.99;95.68;52537.78;5069258;28;20621;-76
2020/12/08 04:36:03;;;;;;;8.40;6.40;;;;;;;-144.99;95.53;52533.69;5069749;28;21227;-76
2020/12/08 04:38:30;;;;;;;11.50;7.37;;;;;;;-144.99;95.62;52562.25;5069448;28;20657;-76
2020/12/08 04:40:56;;;;;;;8.90;6.17;;;;;;;-144.99;95.60;52488.84;5069056;28;20734;-77
2020/12/08 04:43:23;;;;;;;12.87;9.43;;;;;;;-144.99;96.13;52513.31;5069651;28;20629;-77
2020/12/08 04:45:49;;;;;;;13.97;9.60;;;;;;;-144.99;95.98;52513.31;5069187;28;21057;-76
2020/12/08 04:48:15;;;;;;;16.40;9.43;;;;;;;-144.99;95.95;52529.63;5069342;28;20699;-75
2020/12/08 04:50:41;;;;;;;9.47;8.03;;;;;;;-144.99;95.84;52527.59;5069477;28;20658;-74
2020/12/08 04:53:07;;;;;;;14.53;10.07;;;;;;;-144.99;95.98;52529.63;5069027;28;20658;-74
2020/12/08 04:55:34;;;;;;;12.07;8.50;;;;;;;-144.99;96.13;52513.31;5069303;28;20706;-74
2020/12/08 04:58:02;;;;;;;9.90;7.27;;;;;;;-144.99;96.20;52554.09;5069605;28;21045;-74
2020/12/08 05:00:28;;;;;;;10.60;8.67;;;;;;;-144.99;96.02;52505.16;5069087;28;20728;-75
2020/12/08 05:02:55;;;;;;;10.20;7.20;;;;;;;-144.99;96.16;52509.25;5068957;28;20649;-75
2020/12/08 05:05:23;;;;;;;10.40;9.10;;;;;;;-144.99;96.16;52497.00;5069604;28;20622;-74
2020/12/08 05:07:49;;;;;;;11.30;7.20;;;;;;;-144.99;96.23;52529.63;5069110;28;20643;-73
2020/12/08 05:10:26;;;;;;;8.90;6.43;;;;;;;-144.99;96.24;52521.47;5069002;28;20719;-74
2020/12/08 05:12:54;;;;;;;16.47;9.90;;;;;;;-144.99;96.19;52509.25;5069202;28;20700;-73
2020/12/08 05:15:21;;;;;;;13.37;10.93;;;;;;;-144.99;96.21;52529.63;5068749;28;20639;-74
2020/12/08 05:17:47;;;;;;;17.77;11.00;;;;;;;-144.99;96.15;52505.16;5068658;28;20693;-76
2020/12/08 05:20:15;;;;;;;20.50;11.30;;;;;;;-144.99;96.31;52541.84;5069238;28;20639;-75
2020/12/08 05:22:53;;;;;;;15.07;10.47;;;;;;;-144.99;96.22;52525.56;5069164;28;20619;-75
2020/12/08 05:25:20;;;;;;;23.73;12.93;;;;;;;-144.99;96.37;52539.81;5062551;28;20637;-80
2020/12/08 05:27:49;;;;;;;17.97;10.83;;;;;;;-144.99;96.54;52517.41;5068799;28;20710;-76
2020/12/08 05:30:17;;;;;;;11.07;8.37;;;;;;;-144.99;96.54;52501.09;5068617;28;20657;-76
2020/12/08 05:32:43;;;;;;;13.13;8.80;;;;;;;-144.99;96.49;52521.47;5066995;28;21071;-76
2020/12/08 05:35:11;;;;;;;16.53;9.60;;;;;;;-144.99;96.55;52517.41;5069108;28;20730;-76
2020/12/08 05:37:42;;;;;;;14.53;9.43;;;;;;;-144.99;96.52;52525.56;5069612;28;21035;-76
2020/12/08 05:40:10;;;;;;;15.33;10.30;;;;;;;-144.99;96.56;52505.16;5068754;28;20660;-75
2020/12/08 05:42:39;;;;;;;11.23;7.93;;;;;;;-144.99;96.25;52507.19;5069185;28;20812;-76
2020/12/08 05:45:09;;;;;;;22.33;12.37;;;;;;;-144.99;96.36;52484.78;5072410;28;20627;-76
2020/12/08 05:47:43;;;;;;;20.10;11.20;;;;;;;-144.99;96.47;52554.09;5067043;28;20638;-76
2020/12/08 05:50:09;;;;;;;18.07;10.53;;;;;;;-144.99;96.59;52497.00;5073143;28;20722;-76
2020/12/08 05:52:36;;;;;;;21.77;13.80;;;;;;;-144.99;96.92;52529.63;5072546;28;20711;-76
2020/12/08 05:55:07;;;;;;;24.20;13.23;;;;;;;-144.99;96.74;52552.03;5072336;28;21152;-79
2020/12/08 05:57:33;;;;;;;20.30;13.50;;;;;;;-144.99;96.91;52543.91;5073006;28;20714;-79
2020/12/08 05:59:59;;;;;;;14.33;8.80;;;;;;;-144.99;96.61;52550.00;5072113;28;20690;-78
2020/12/08 06:02:30;;;;;;;10.07;7.50;;;;;;;-144.99;96.33;52488.84;5073128;28;21177;-80
2020/12/08 06:04:58;;;;;;;9.73;6.77;;;;;;;-144.99;96.23;52541.84;5072676;28;20873;-76
2020/12/08 06:07:31;;;;;;;9.20;6.73;;;;;;;-144.99;96.18;52474.59;5073383;28;20733;-77
2020/12/08 06:10:08;;;;;;;10.17;7.80;;;;;;;-144.99;96.39;52513.31;5071745;28;20634;-78
2020/12/08 06:12:38;;;;;;;9.33;7.27;;;;;;;-144.99;96.55;52531.66;5072514;28;20763;-77
2020/12/08 06:15:21;;;;;;;12.97;8.60;;;;;;;-144.99;96.61;52513.31;5072146;28;20702;-78
2020/12/08 06:17:48;;;;;;;11.50;8.40;;;;;;;-144.99;96.71;52525.56;5072260;28;21167;-73
2020/12/08 06:20:15;;;;;;;11.37;7.77;;;;;;;-144.99;96.81;52517.41;5072750;28;20710;-73
2020/12/08 06:22:41;;;;;;;12.23;8.13;;;;;;;-144.99;96.99;52558.16;5071628;28;21239;-77
2020/12/08 06:25:07;;;;;;;9.60;8.03;;;;;;;-144.99;96.98;52547.97;5071856;28;20658;-74
2020/12/08 06:27:33;;;;;;;8.07;6.37;;;;;;;-144.99;97.38;52541.84;5071939;28;20682;-75
2020/12/08 06:29:59;;;;;;;6.70;5.33;;;;;;;-144.99;97.64;52529.63;5071927;28;20722;-74
2020/12/08 06:32:27;;;;;;;8.10;6.87;;;;;;;-144.99;97.90;52537.78;5071270;28;21028;-71
2020/12/08 06:35:08;;;;;;;10.33;8.13;;;;;;;-144.99;98.16;52509.25;5071097;28;20647;-71
2020/12/08 06:37:35;;;;;;;8.53;7.07;;;;;;;-144.99;98.25;52521.47;5069497;28;20702;-71
2020/12/08 06:40:09;;;;;;;10.93;9.83;;;;;;;-144.99;98.26;52578.53;5070834;28;20642;-71
2020/12/08 06:42:35;;;;;;;10.80;8.07;;;;;;;-144.99;98.56;52566.31;5072150;28;20758;-70
2020/12/08 06:45:13;;;;;;;12.17;7.43;;;;;;;-144.99;98.65;52482.75;5071949;28;20630;-72
2020/12/08 06:47:40;;;;;;;10.23;8.23;;;;;;;-144.99;98.93;52503.13;5068329;28;20643;-71
2020/12/08 06:50:20;;;;;;;13.07;8.60;;;;;;;-144.99;99.12;52505.16;5071272;28;21318;-70
2020/12/08 06:52:52;;;;;;;16.90;11.93;;;;;;;-144.99;99.07;52570.38;5070765;28;21235;-70
2020/12/08 06:55:18;;;;;;;22.60;12.30;;;;;;;-144.99;99.20;52545.94;5067236;28;20735;-72
2020/12/08 06:57:44;;;;;;;21.60;12.13;;;;;;;-144.99;99.09;52550.00;5071344;28;20661;-72
2020/12/08 07:00:11;;;;;;;23.83;13.83;;;;;;;-144.99;99.30;52517.41;5070510;28;20666;-72
2020/12/08 07:02:48;;;;;;;15.53;11.07;;;;;;;-144.99;99.29;52517.41;5070746;28;20630;-72
2020/12/08 07:05:14;;;;;;;16.17;10.70;;;;;;;-144.99;99.11;52484.78;5070406;28;20634;-73
2020/12/08 07:07:43;;;;;;;14.73;11.80;;;;;;;-144.99;99.08;52533.69;5070531;28;20735;-73
2020/12/08 07:10:10;;;;;;;16.70;12.17;;;;;;;-144.99;99.11;52509.25;5070186;28;20661;-74
2020/12/08 07:12:41;;;;;;;23.77;16.33;;;;;;;-144.99;99.22;52488.84;5070639;28;20654;-74
2020/12/08 07:15:07;;;;;;;20.83;14.10;;;;;;;-144.99;99.22;52513.31;5069881;28;20669;-74
2020/12/08 07:17:33;;;;;;;28.57;15.67;;;;;;;-144.99;99.52;52533.69;5070290;28;20643;-74
2020/12/08 07:20:04;;;;;;;23.57;16.50;;;;;;;-144.99;99.66;52533.69;5070045;28;20743;-72
2020/12/08 07:22:40;;;;;;;29.83;14.13;;;;;;;-144.99;99.74;52513.31;5068105;28;20889;-79
2020/12/08 07:25:06;;;;;;;24.73;17.70;;;;;;;-144.99;99.78;52552.03;5070002;28;20649;-73
2020/12/08 07:27:34;;;;;;;19.47;12.70;;;;;;;-144.99;99.40;52550.00;5071884;28;21053;-74
2020/12/08 07:30:00;;;;;;;23.87;14.27;;;;;;;-144.99;99.32;52533.69;5071979;28;20758;-72
2020/12/08 07:32:28;;;;;;;26.93;14.97;;;;;;;-144.99;99.54;52570.38;5071635;28;20667;-73
2020/12/08 07:34:54;;;;;;;15.93;9.83;;;;;;;-144.99;99.42;52543.91;5070336;28;21018;-73
2020/12/08 07:37:20;;;;;;;11.40;7.90;;;;;;;-144.99;99.19;52513.31;5068523;28;20651;-72
2020/12/08 07:39:46;;;;;;;14.90;12.20;;;;;;;-144.99;98.96;52505.16;5076668;28;20654;-73
2020/12/08 07:42:12;;;;;;;17.53;10.90;;;;;;;-144.99;98.88;52558.16;5070560;28;20630;-73
2020/12/08 07:44:39;;;;;;;17.40;9.73;;;;;;;-144.99;98.87;52558.16;5070075;28;20626;-72
2020/12/08 07:47:12;;;;;;;14.67;12.73;;;;;;;-144.99;99.03;52566.31;5074369;28;20728;-74
2020/12/08 07:49:41;;;;;;;27.37;15.30;;;;;;;-144.99;98.98;52529.63;5071543;28;20739;-74
2020/12/08 07:52:07;;;;;;;20.20;13.23;;;;;;;-144.99;98.89;52509.25;5060891;28;21013;-73
2020/12/08 07:54:33;;;;;;;15.00;12.33;;;;;;;-144.99;98.81;52533.69;5075981;28;20706;-75
2020/12/08 07:56:59;;;;;;;23.77;13.30;;;;;;;-144.99;98.88;52550.00;5070696;28;20722;-76
2020/12/08 07:59:25;;;;;;;21.93;13.97;;;;;;;-144.99;98.81;52517.41;5080729;28;20674;-73
2020/12/08 08:01:53;;;;;;;22.10;13.57;;;;;;;-144.99;98.79;52484.78;5068841;28;20835;-73
2020/12/08 08:04:19;;;;;;;16.00;11.77;;;;;;;-144.99;98.77;52486.81;5067403;28;20715;-75
2020/12/08 08:06:45;;;;;;;19.90;11.73;;;;;;;-144.99;98.87;52509.25;5070234;28;20722;-79
2020/12/08 08:09:11;;;;;;;11.80;9.20;;;;;;;-144.99;99.09;52529.63;5070326;28;21069;-75
2020/12/08 08:11:37;;;;;;;14.03;10.50;;;;;;;-144.99;98.96;52566.31;5070002;28;20627;-75
2020/12/08 08:14:05;;;;;;;11.13;8.60;;;;;;;-144.99;98.70;52533.69;5071019;28;21252;-75
2020/12/08 08:16:31;;;;;;;11.27;9.23;;;;;;;-144.99;98.72;52539.81;5084170;28;20629;-75
2020/12/08 08:18:58;;;;;;;11.47;9.20;;;;;;;-144.99;98.88;52525.56;5070886;28;20691;-75
2020/12/08 08:21:24;;;;;;;13.07;10.03;;;;;;;-144.99;98.68;52554.09;5088323;28;20614;-75
2020/12/08 08:23:51;;;;;;;14.63;10.20;;;;;;;-144.99;98.55;52519.44;5073445;28;21033;-76
2020/12/08 08:26:17;;;;;;;13.07;10.20;;;;;;;-144.99;98.49;52521.47;5083032;28;21048;-74
2020/12/08 08:28:43;;;;;;;13.60;10.23;;;;;;;-144.99;98.40;52525.56;5063910;28;20747;-77
2020/12/08 08:31:10;;;;;;;26.27;15.43;;;;;;;-144.99;98.25;52529.63;5074640;28;20646;-76
2020/12/08 08:33:36;;;;;;;24.23;17.70;;;;;;;-144.99;98.01;52537.78;5069226;28;20641;-73
2020/12/08 08:36:03;;;;;;;28.03;20.53;;;;;;;-144.99;97.74;52521.47;5077016;28;20622;-74
2020/12/08 08:38:29;;;;;;;25.53;17.57;;;;;;;-144.99;97.62;52486.81;5075413;28;20659;-74
2020/12/08 08:40:57;;;;;;;17.60;13.93;;;;;;;-144.99;97.06;52566.31;5071643;28;20622;-73
2020/12/08 08:43:23;;;;;;;24.27;15.30;;;;;;;-144.99;97.12;52545.94;5075351;28;20626;-74
2020/12/08 08:45:50;;;;;;;16.93;12.43;;;;;;;-144.99;96.66;52558.16;5072282;28;20767;-77
2020/12/08 08:48:16;;;;;;;12.77;10.87;;;;;;;-144.99;96.73;52505.16;5069062;28;20678;-74
2020/12/08 08:50:42;;;;;;;11.97;9.43;;;;;;;-144.99;96.55;52529.63;5074640;28;20654;-75
2020/12/08 08:53:09;;;;;;;10.60;8.83;;;;;;;-144.99;96.52;52505.16;5089546;28;20656;-76
2020/12/08 08:55:36;;;;;;;13.33;9.70;;;;;;;-144.99;96.73;52529.63;5087237;28;20695;-75
2020/12/08 08:58:02;;;;;;;10.27;8.50;;;;;;;-144.99;96.12;52517.41;5084540;28;20640;-76
2020/12/08 09:00:28;;;;;;;11.10;8.57;;;;;;;-144.99;95.28;52484.78;5079106;22;20722;-69
2020/12/08 09:02:58;;;;;;;10.07;8.07;;;;;;;-144.99;93.40;52470.50;5047667;28;20608;-71
2020/12/08 09:05:25;;;;;;;10.87;7.77;;;;;;;-144.99;91.53;52472.56;5057647;28;20563;-69
2020/12/08 09:07:51;;;;;;;10.53;8.07;;;;;;;-144.99;89.47;52482.75;5068914;28;20213;-69
2020/12/08 09:10:18;;;;;;;9.03;7.83;;;;;;;-144.99;88.24;52462.34;5068074;28;20262;-70
2020/12/08 09:12:44;;;;;;;8.83;7.73;;;;;;;-144.99;87.26;52476.63;5068408;28;20666;-72
2020/12/08 09:15:11;;;;;;;11.90;8.70;;;;;;;-144.99;87.39;52488.84;5068162;28;20666;-71
2020/12/08 09:17:37;;;;;;;11.13;8.30;;;;;;;-144.99;86.70;52545.94;5058219;28;20202;-70
2020/12/08 09:20:04;;;;;;;12.10;8.80;;;;;;;-144.99;87.03;52480.72;5048283;28;20703;-73
2020/12/08 09:22:30;;;;;;;12.57;8.80;;;;;;;-144.99;87.20;52497.00;5048131;28;20550;-71
2020/12/08 09:24:57;;;;;;;13.60;10.30;;;;;;;-144.99;87.14;52476.63;5042167;28;20197;-71
2020/12/08 09:27:24;;;;;;;13.53;10.10;;;;;;;-144.99;87.18;52492.94;5048194;28;20249;-71
2020/12/08 09:29:50;;;;;;;26.23;17.57;;;;;;;-144.99;86.89;52497.00;5047357;28;20781;-69
2020/12/08 09:32:18;;;;;;;36.17;20.80;;;;;;;-144.99;86.84;52492.94;5047320;28;20212;-70
2020/12/08 09:34:44;;;;;;;42.87;28.83;;;;;;;-144.99;87.07;52501.09;5047920;28;20205;-70
2020/12/08 09:37:11;;;;;;;33.63;20.20;;;;;;;-144.99;87.24;52499.06;5047778;28;20502;-70
2020/12/08 09:39:38;;;;;;;19.97;14.33;;;;;;;-144.99;87.33;52521.47;5047679;28;20632;-73
2020/12/08 09:42:04;;;;;;;17.33;12.23;;;;;;;-144.99;87.55;52511.28;5048408;28;20312;-69
2020/12/08 09:44:31;;;;;;;15.80;10.37;;;;;;;-144.99;87.66;52521.47;5047667;28;20263;-71
2020/12/08 09:46:57;;;;;;;15.70;12.03;;;;;;;-144.99;87.79;52539.81;5048069;28;20206;-74
2020/12/08 09:49:24;;;;;;;13.67;9.93;;;;;;;-144.99;88.04;52517.41;5047320;28;20764;-71
2020/12/08 09:51:50;;;;;;;13.80;9.27;;;;;;;-144.99;88.11;52488.84;5045687;28;20625;-71
2020/12/08 09:54:16;;;;;;;18.67;8.70;;;;;;;-144.99;88.11;52515.34;5047603;28;20295;-71
2020/12/08 09:56:46;;;;;;;10.73;8.53;;;;;;;-144.99;88.14;52517.41;5047836;28;20205;-70
2020/12/08 09:59:12;;;;;;;15.27;9.00;;;;;;;-144.99;88.00;52529.63;5047074;28;20225;-70
2020/12/08 10:01:39;;;;;;;22.33;11.93;;;;;;;-144.99;88.09;52484.78;5048162;28;20662;-71
2020/12/08 10:04:05;;;;;;;11.50;9.77;;;;;;;-144.99;87.73;52529.63;5048969;28;20229;-71
2020/12/08 10:06:32;;;;;;;16.17;11.80;;;;;;;-144.99;87.94;52519.44;5048216;28;20201;-70
2020/12/08 10:08:58;;;;;;;13.17;10.57;;;;;;;-144.99;87.75;52509.25;5047886;28;20705;-71
2020/12/08 10:11:25;;;;;;;11.73;9.40;;;;;;;-144.99;87.56;52505.16;5044364;28;20213;-71
2020/12/08 10:13:52;;;;;;;9.43;8.37;;;;;;;-144.99;87.39;52501.09;5047921;28;20237;-70
2020/12/08 10:16:19;;;;;;;11.20;9.57;;;;;;;-144.99;86.87;52488.84;5046430;28;20209;-71
2020/12/08 10:18:47;;;;;;;13.83;9.60;;;;;;;-144.99;86.97;52515.34;5048196;28;20281;-71
2020/12/08 10:21:13;;;;;;;11.53;8.50;;;;;;;-144.99;86.42;52521.47;5047864;28;20197;-70
2020/12/08 10:23:40;;;;;;;13.13;9.23;;;;;;;-144.99;86.81;52547.97;5047762;28;20613;-71
2020/12/08 10:26:09;;;;;;;12.13;9.57;;;;;;;-144.99;86.92;52497.00;5047568;28;20197;-70
2020/12/08 10:28:35;;;;;;;11.37;9.03;;;;;;;-144.99;87.05;52550.00;5048685;28;20213;-69
2020/12/08 10:31:02;;;;;;;12.90;10.93;;;;;;;-144.99;87.12;52472.56;5051796;28;20218;-72
2020/12/08 10:33:28;;;;;;;11.73;9.33;;;;;;;-144.99;87.05;52480.72;5052115;28;20555;-69
2020/12/08 10:35:55;;;;;;;12.17;8.77;;;;;;;-144.99;87.09;52501.09;5052029;28;20198;-70
2020/12/08 10:38:21;;;;;;;14.70;12.97;;;;;;;-144.99;86.93;52501.09;5052493;28;20243;-71
2020/12/08 10:40:47;;;;;;;13.30;11.10;;;;;;;-144.99;87.09;52509.25;5051825;28;20604;-70
2020/12/08 10:43:13;;;;;;;11.63;8.93;;;;;;;-144.99;87.13;52486.81;5054808;28;20205;-71
2020/12/08 10:45:39;;;;;;;15.27;11.17;;;;;;;-144.99;87.02;52513.31;5054486;28;20731;-69
2020/12/08 10:48:05;;;;;;;14.03;10.77;;;;;;;-144.99;87.06;52488.84;5054512;28;20325;-71
2020/12/08 10:50:32;;;;;;;10.60;8.20;;;;;;;-144.99;87.04;52521.47;5050842;28;20237;-70
2020/12/08 10:52:58;;;;;;;14.67;10.60;;;;;;;-144.99;87.03;52521.47;5050711;28;20256;-70
2020/12/08 10:55:25;;;;;;;15.03;10.73;;;;;;;-144.99;86.78;52515.34;5049834;28;20225;-72
2020/12/08 10:57:51;;;;;;;12.50;10.03;;;;;;;-144.99;87.02;52562.25;5050948;28;20253;-71
2020/12/08 11:00:17;;;;;;;12.43;8.93;;;;;;;-144.99;87.13;52513.31;5049193;28;20719;-68
2020/12/08 11:02:44;;;;;;;11.70;8.57;;;;;;;-144.99;87.35;52505.16;5051162;28;20396;-69
2020/12/08 11:05:10;;;;;;;13.73;10.77;;;;;;;-144.99;87.88;52472.56;5050990;28;20296;-71
2020/12/08 11:07:36;;;;;;;14.30;12.00;;;;;;;-144.99;87.81;52497.00;5050888;28;20238;-69
2020/12/08 11:10:04;;;;;;;13.10;10.87;;;;;;;-144.99;87.66;52521.47;5049688;28;20244;-71